createdAt,value
2023-07-06T00:00:11.944Z,50.88
2023-07-06T00:01:11.951Z,50.60
2023-07-06T00:02:11.960Z,52.39
2023-07-06T00:03:11.994Z,50.86
2023-07-06T00:04:12.017Z,51.85
2023-07-06T00:05:11.999Z,52.28
2023-07-06T00:06:11.989Z,52.11
2023-07-06T00:07:12.018Z,52.15
2023-07-06T00:08:11.981Z,50.72
2023-07-06T00:09:11.990Z,51.07
2023-07-06T00:10:12.022Z,50.49
2023-07-06T00:11:12.056Z,52.10
2023-07-06T00:12:12.045Z,51.25
2023-07-06T00:13:12.067Z,51.89
2023-07-06T00:14:12.036Z,50.76
2023-07-06T00:15:12.047Z,51.44
2023-07-06T00:16:12.085Z,50.53
2023-07-06T00:17:12.092Z,52.95
2023-07-06T00:18:12.051Z,52.17
2023-07-06T00:19:12.039Z,51.30
2023-07-06T00:20:12.065Z,51.39
2023-07-06T00:21:12.084Z,52.07
2023-07-06T00:22:12.104Z,52.18
2023-07-06T00:23:12.148Z,51.93
2023-07-06T00:24:12.120Z,51.17
2023-07-06T00:25:12.111Z,51.10
2023-07-06T00:26:12.121Z,50.83
2023-07-06T00:27:12.166Z,51.69
2023-07-06T00:28:12.134Z,52.34
2023-07-06T00:29:12.142Z,52.34
2023-07-06T00:30:12.138Z,51.60
2023-07-06T00:31:12.230Z,52.81
2023-07-06T00:32:12.164Z,51.99
2023-07-06T00:33:12.186Z,51.26
2023-07-06T00:34:12.184Z,50.00
2023-07-06T00:35:12.197Z,51.45
2023-07-06T00:36:12.278Z,51.81
2023-07-06T00:37:12.255Z,52.76
2023-07-06T00:38:12.272Z,50.52
2023-07-06T00:39:12.272Z,51.93
2023-07-06T00:40:12.235Z,50.24
2023-07-06T00:41:12.237Z,50.59
2023-07-06T00:42:12.300Z,52.57
2023-07-06T00:43:12.308Z,50.54
2023-07-06T00:44:12.341Z,53.45
2023-07-06T00:45:12.321Z,52.12
2023-07-06T00:46:12.375Z,53.41
2023-07-06T00:47:12.356Z,51.39
2023-07-06T00:49:27.797Z,50.00
2023-07-06T00:50:27.706Z,50.00
2023-07-06T00:51:27.707Z,50.00
2023-07-06T00:52:27.653Z,50.00
2023-07-06T00:53:27.657Z,50.00
2023-07-06T00:54:27.634Z,50.02
2023-07-06T00:55:27.620Z,52.00
2023-07-06T00:56:27.633Z,52.62
2023-07-06T00:57:27.633Z,50.97
2023-07-06T00:58:27.591Z,52.05
2023-07-06T00:59:27.566Z,51.82
2023-07-06T01:00:27.581Z,50.95
2023-07-06T01:01:27.571Z,51.90
2023-07-06T01:02:27.576Z,51.38
2023-07-06T01:03:27.656Z,51.26
2023-07-06T01:04:27.559Z,54.41
2023-07-06T01:05:27.549Z,52.19
2023-07-06T01:06:27.509Z,52.42
2023-07-06T01:07:27.533Z,55.06
2023-07-06T01:08:27.495Z,52.14
2023-07-06T01:09:27.480Z,50.42
2023-07-06T01:10:27.497Z,52.32
2023-07-06T01:11:27.449Z,53.05
2023-07-06T01:12:27.436Z,53.30
2023-07-06T01:13:27.460Z,50.76
2023-07-06T01:14:27.398Z,52.61
2023-07-06T01:15:27.424Z,51.23
2023-07-06T01:16:27.377Z,53.41
2023-07-06T01:17:27.429Z,53.65
2023-07-06T01:18:27.352Z,53.29
2023-07-06T01:19:27.326Z,51.56
2023-07-06T01:20:27.456Z,52.81
2023-07-06T01:21:27.313Z,52.02
2023-07-06T01:22:27.304Z,51.39
2023-07-06T01:23:27.302Z,50.00
2023-07-06T01:24:27.303Z,50.53
2023-07-06T01:25:27.271Z,53.02
2023-07-06T01:26:27.277Z,50.96
2023-07-06T01:27:27.359Z,50.09
2023-07-06T01:28:27.381Z,54.23
2023-07-06T01:29:27.495Z,53.68
2023-07-06T01:30:27.501Z,51.86
2023-07-06T01:31:27.627Z,51.58
2023-07-06T01:32:27.641Z,53.77
2023-07-06T01:33:27.638Z,52.33
2023-07-06T01:34:27.730Z,53.29
2023-07-06T01:35:27.757Z,52.17
2023-07-06T01:36:27.791Z,51.28
2023-07-06T01:37:27.852Z,52.89
2023-07-06T01:38:27.888Z,50.82
2023-07-06T01:39:27.944Z,51.73
2023-07-06T01:40:27.994Z,50.44
2023-07-06T01:41:28.075Z,51.49
2023-07-06T01:42:28.083Z,52.28
2023-07-06T01:43:28.134Z,50.36
2023-07-06T01:44:28.208Z,53.34
2023-07-06T01:45:28.274Z,54.10
2023-07-06T01:46:28.327Z,51.89
2023-07-06T01:47:28.410Z,52.72
2023-07-06T01:48:28.427Z,52.96
2023-07-06T01:49:28.449Z,50.30
2023-07-06T01:50:28.524Z,51.01
2023-07-06T01:51:28.569Z,52.46
2023-07-06T01:52:30.008Z,52.37
2023-07-06T01:53:28.647Z,52.99
2023-07-06T01:54:28.705Z,52.95
2023-07-06T01:55:28.807Z,53.17
2023-07-06T01:56:28.828Z,50.36
2023-07-06T01:57:28.885Z,54.21
2023-07-06T01:58:28.940Z,52.63
2023-07-06T01:59:28.996Z,52.74
2023-07-06T02:00:29.075Z,53.52
2023-07-06T02:01:29.203Z,54.13
2023-07-06T02:02:29.280Z,50.88
2023-07-06T02:03:29.176Z,51.40
2023-07-06T02:04:29.369Z,52.64
2023-07-06T02:05:29.394Z,50.00
2023-07-06T02:06:29.343Z,50.00
2023-07-06T02:07:29.419Z,52.38
2023-07-06T02:08:29.458Z,52.82
2023-07-06T02:09:29.507Z,52.70
2023-07-06T02:10:29.555Z,52.80
2023-07-06T02:11:29.627Z,52.64
2023-07-06T02:12:29.711Z,53.05
2023-07-06T02:13:29.811Z,51.94
2023-07-06T02:14:29.787Z,52.81
2023-07-06T02:15:29.821Z,52.71
2023-07-06T02:16:29.947Z,52.60
2023-07-06T02:17:30.015Z,53.81
2023-07-06T02:18:30.024Z,51.19
2023-07-06T02:19:30.045Z,50.00
2023-07-06T02:20:30.128Z,52.62
2023-07-06T02:21:30.161Z,52.65
2023-07-06T02:22:30.214Z,55.04
2023-07-06T02:23:30.255Z,53.73
2023-07-06T02:24:30.311Z,52.70
2023-07-06T02:25:30.364Z,53.50
2023-07-06T02:26:30.392Z,50.40
2023-07-06T02:27:30.470Z,53.53
2023-07-06T02:28:30.525Z,51.98
2023-07-06T02:29:30.599Z,51.25
2023-07-06T02:30:30.654Z,51.13
2023-07-06T02:31:30.670Z,54.71
2023-07-06T02:32:30.757Z,53.31
2023-07-06T02:33:30.787Z,54.54
2023-07-06T02:34:30.853Z,51.20
2023-07-06T02:35:30.925Z,52.26
2023-07-06T02:36:31.061Z,50.46
2023-07-06T02:37:31.001Z,54.83
2023-07-06T02:38:31.061Z,52.98
2023-07-06T02:39:31.100Z,52.34
2023-07-06T02:40:31.186Z,51.25
2023-07-06T02:41:31.228Z,50.00
2023-07-06T02:42:31.300Z,53.65
2023-07-06T02:43:31.348Z,52.00
2023-07-06T02:44:31.369Z,53.60
2023-07-06T02:45:31.409Z,51.32
2023-07-06T02:46:31.565Z,51.53
2023-07-06T02:47:31.536Z,52.18
2023-07-06T02:48:31.607Z,51.37
2023-07-06T02:49:31.674Z,51.22
2023-07-06T02:50:31.728Z,50.43
2023-07-06T02:51:31.773Z,51.23
2023-07-06T02:52:31.802Z,53.34
2023-07-06T02:53:31.883Z,51.75
2023-07-06T02:54:31.906Z,52.16
2023-07-06T02:55:31.934Z,51.08
2023-07-06T02:56:32.029Z,55.56
2023-07-06T02:57:32.087Z,52.65
2023-07-06T02:58:32.097Z,54.67
2023-07-06T02:59:32.210Z,53.60
2023-07-06T03:00:32.201Z,55.03
2023-07-06T03:01:32.284Z,53.73
2023-07-06T03:02:32.396Z,52.83
2023-07-06T03:03:32.370Z,52.33
2023-07-06T03:04:32.432Z,53.66
2023-07-06T03:05:32.514Z,52.44
2023-07-06T03:06:32.503Z,55.12
2023-07-06T03:07:32.544Z,54.39
2023-07-06T03:08:32.589Z,52.09
2023-07-06T03:09:32.635Z,50.91
2023-07-06T03:10:32.676Z,50.85
2023-07-06T03:11:32.718Z,52.29
2023-07-06T03:12:32.783Z,52.28
2023-07-06T03:13:32.914Z,51.29
2023-07-06T03:14:32.876Z,51.76
2023-07-06T03:15:32.926Z,51.86
2023-07-06T03:16:32.998Z,52.19
2023-07-06T03:17:33.053Z,52.07
2023-07-06T03:18:33.118Z,50.71
2023-07-06T03:19:33.111Z,53.25
2023-07-06T03:20:33.130Z,52.13
2023-07-06T03:21:33.180Z,52.49
2023-07-06T03:22:33.263Z,52.71
2023-07-06T03:23:33.340Z,52.57
2023-07-06T03:24:34.700Z,51.74
2023-07-06T03:25:33.422Z,52.28
2023-07-06T03:26:33.491Z,50.16
2023-07-06T03:27:33.519Z,53.00
2023-07-06T03:28:33.564Z,51.69
2023-07-06T03:29:33.620Z,54.49
2023-07-06T03:30:33.646Z,52.50
2023-07-06T03:31:33.930Z,52.78
2023-07-06T03:32:33.863Z,53.38
2023-07-06T03:33:33.846Z,52.14
2023-07-06T03:34:33.855Z,51.89
2023-07-06T03:35:34.008Z,50.27
2023-07-06T03:36:33.975Z,50.08
2023-07-06T03:37:34.027Z,50.00
2023-07-06T03:38:34.066Z,51.86
2023-07-06T03:39:34.128Z,54.44
2023-07-06T03:40:34.178Z,52.38
2023-07-06T03:41:34.174Z,50.94
2023-07-06T03:42:34.209Z,51.41
2023-07-06T03:43:34.269Z,54.64
2023-07-06T03:44:34.249Z,53.62
2023-07-06T03:45:34.358Z,51.98
2023-07-06T03:46:34.351Z,53.16
2023-07-06T03:47:34.357Z,53.13
2023-07-06T03:48:34.328Z,52.81
2023-07-06T03:49:34.386Z,53.44
2023-07-06T03:50:34.398Z,53.15
2023-07-06T03:51:34.465Z,54.19
2023-07-06T03:52:34.488Z,50.94
2023-07-06T03:53:34.533Z,50.97
2023-07-06T03:54:34.567Z,51.25
2023-07-06T03:55:34.634Z,54.74
2023-07-06T03:56:34.661Z,53.43
2023-07-06T03:57:34.689Z,55.01
2023-07-06T03:58:34.710Z,53.09
2023-07-06T03:59:35.532Z,52.89
2023-07-06T04:00:34.792Z,53.05
2023-07-06T04:01:34.862Z,53.31
2023-07-06T04:02:34.935Z,52.71
2023-07-06T04:03:35.019Z,54.35
2023-07-06T04:04:34.960Z,52.03
2023-07-06T04:05:35.007Z,52.41
2023-07-06T04:06:35.037Z,50.94
2023-07-06T04:07:35.068Z,50.96
2023-07-06T04:08:35.087Z,52.50
2023-07-06T04:09:35.137Z,53.76
2023-07-06T04:10:35.231Z,50.52
2023-07-06T04:11:35.224Z,53.97
2023-07-06T04:12:35.264Z,50.10
2023-07-06T04:13:35.392Z,51.81
2023-07-06T04:14:35.333Z,52.27
2023-07-06T04:15:35.379Z,52.16
2023-07-06T04:16:35.516Z,51.83
2023-07-06T04:17:35.488Z,50.13
2023-07-06T04:18:35.475Z,54.40
2023-07-06T04:19:35.527Z,53.11
2023-07-06T04:20:35.777Z,51.06
2023-07-06T04:21:35.540Z,51.55
2023-07-06T04:22:35.612Z,53.88
2023-07-06T04:23:35.630Z,51.85
2023-07-06T04:24:35.612Z,54.05
2023-07-06T04:25:35.666Z,54.56
2023-07-06T04:26:35.663Z,51.09
2023-07-06T04:27:35.694Z,50.09
2023-07-06T04:28:35.731Z,51.43
2023-07-06T04:29:35.768Z,52.44
2023-07-06T04:30:35.757Z,51.19
2023-07-06T04:31:35.829Z,51.38
2023-07-06T04:32:35.820Z,50.74
2023-07-06T04:33:35.797Z,52.60
2023-07-06T04:34:35.796Z,52.81
2023-07-06T04:35:37.582Z,52.69
2023-07-06T04:36:35.822Z,54.30
2023-07-06T04:37:35.779Z,54.69
2023-07-06T04:38:35.818Z,51.44
2023-07-06T04:39:35.747Z,53.52
2023-07-06T04:40:35.706Z,53.37
2023-07-06T04:41:35.676Z,53.30
2023-07-06T04:42:35.631Z,50.36
2023-07-06T04:43:35.599Z,51.13
2023-07-06T04:44:35.622Z,52.82
2023-07-06T04:45:35.608Z,52.41
2023-07-06T04:46:35.641Z,52.81
2023-07-06T04:47:35.614Z,52.16
2023-07-06T04:48:35.480Z,52.19
2023-07-06T04:49:35.508Z,52.03
2023-07-06T04:50:35.439Z,52.03
2023-07-06T04:51:35.456Z,51.93
2023-07-06T04:52:35.399Z,50.95
2023-07-06T04:53:35.389Z,51.32
2023-07-06T04:54:35.357Z,51.87
2023-07-06T04:55:35.309Z,52.97
2023-07-06T04:56:35.300Z,52.26
2023-07-06T04:57:35.257Z,50.00
2023-07-06T04:58:35.218Z,51.58
2023-07-06T04:59:35.194Z,51.28
2023-07-06T05:00:35.196Z,52.30
2023-07-06T05:01:35.156Z,52.01
2023-07-06T05:02:35.147Z,53.23
2023-07-06T05:03:35.118Z,51.58
2023-07-06T05:04:35.074Z,51.69
2023-07-06T05:05:35.053Z,52.16
2023-07-06T05:06:35.008Z,54.56
2023-07-06T05:07:34.956Z,53.74
2023-07-06T05:08:34.924Z,53.91
2023-07-06T05:09:34.952Z,51.94
2023-07-06T05:10:34.886Z,52.82
2023-07-06T05:11:34.850Z,53.89
2023-07-06T05:12:34.845Z,54.16
2023-07-06T05:13:34.838Z,52.60
2023-07-06T05:14:34.801Z,54.64
2023-07-06T05:15:34.773Z,54.23
2023-07-06T05:16:34.823Z,52.50
2023-07-06T05:17:34.772Z,53.65
2023-07-06T05:18:34.680Z,52.81
2023-07-06T05:19:34.690Z,54.93
2023-07-06T05:20:34.662Z,52.63
2023-07-06T05:21:34.602Z,54.44
2023-07-06T05:22:34.569Z,52.68
2023-07-06T05:23:34.575Z,54.31
2023-07-06T05:24:34.516Z,52.90
2023-07-06T05:25:34.529Z,54.65
2023-07-06T05:26:34.487Z,51.23
2023-07-06T05:27:34.464Z,51.92
2023-07-06T05:28:34.446Z,51.49
2023-07-06T05:29:34.416Z,50.91
2023-07-06T05:30:34.431Z,52.17
2023-07-06T05:31:34.390Z,54.88
2023-07-06T05:32:34.421Z,53.87
2023-07-06T05:33:34.595Z,53.74
2023-07-06T05:34:34.432Z,51.20
2023-07-06T05:35:34.435Z,51.21
2023-07-06T05:36:34.433Z,59.37
2023-07-06T05:37:36.081Z,63.61
2023-07-06T05:38:34.551Z,53.64
2023-07-06T05:39:34.561Z,52.87
2023-07-06T05:40:34.567Z,53.78
2023-07-06T05:41:34.582Z,48.98
2023-07-06T05:42:34.593Z,50.41
2023-07-06T05:43:34.602Z,50.46
2023-07-06T05:44:34.601Z,55.05
2023-07-06T05:45:34.583Z,52.46
2023-07-06T05:46:34.632Z,50.00
2023-07-06T05:47:34.536Z,50.47
2023-07-06T05:48:34.518Z,50.00
2023-07-06T05:49:34.516Z,51.41
2023-07-06T05:50:34.525Z,50.00
2023-07-06T05:51:34.537Z,50.29
2023-07-06T05:52:34.563Z,53.17
2023-07-06T05:53:34.544Z,50.05
2023-07-06T05:54:34.552Z,52.53
2023-07-06T05:55:34.580Z,51.89
2023-07-06T05:56:34.588Z,50.35
2023-07-06T05:57:34.633Z,59.65
2023-07-06T05:58:34.642Z,63.22
2023-07-06T05:59:34.644Z,65.04
2023-07-06T06:00:34.641Z,71.57
2023-07-06T06:01:35.979Z,75.49
2023-07-06T06:02:34.674Z,83.68
2023-07-06T06:03:34.618Z,82.44
2023-07-06T06:04:34.665Z,75.62
2023-07-06T06:05:34.634Z,78.26
2023-07-06T06:06:34.582Z,77.26
2023-07-06T06:07:34.632Z,84.27
2023-07-06T06:08:34.606Z,85.89
2023-07-06T06:09:34.602Z,88.34
2023-07-06T06:10:34.642Z,88.28
2023-07-06T06:11:34.546Z,87.63
2023-07-06T06:12:34.570Z,85.57
2023-07-06T06:13:34.537Z,89.34
2023-07-06T06:14:34.526Z,88.55
2023-07-06T06:15:34.604Z,89.40
2023-07-06T06:16:34.601Z,90.48
2023-07-06T06:17:34.560Z,86.08
2023-07-06T06:18:34.505Z,87.91
2023-07-06T06:19:34.466Z,87.86
2023-07-06T06:20:34.462Z,85.95
2023-07-06T06:21:34.439Z,83.80
2023-07-06T06:22:34.497Z,84.03
2023-07-06T06:23:34.456Z,85.79
2023-07-06T06:24:34.454Z,83.04
2023-07-06T06:25:34.449Z,83.73
2023-07-06T06:26:34.448Z,81.82
2023-07-06T06:27:34.430Z,81.11
2023-07-06T06:28:34.418Z,81.87
2023-07-06T06:29:34.427Z,79.84
2023-07-06T06:30:34.393Z,81.41
2023-07-06T06:31:34.448Z,81.03
2023-07-06T06:32:34.396Z,75.39
2023-07-06T06:33:34.361Z,77.98
2023-07-06T06:34:34.405Z,78.95
2023-07-06T06:35:34.396Z,80.06
2023-07-06T06:36:34.383Z,75.84
2023-07-06T06:37:34.368Z,76.25
2023-07-06T06:38:34.341Z,75.41
2023-07-06T06:39:34.323Z,76.09
2023-07-06T06:40:34.317Z,76.05
2023-07-06T06:41:34.330Z,74.28
2023-07-06T06:42:34.331Z,76.07
2023-07-06T06:43:34.262Z,76.03
2023-07-06T06:44:34.316Z,75.92
2023-07-06T06:45:34.261Z,75.90
2023-07-06T06:46:34.338Z,74.13
2023-07-06T06:47:34.280Z,72.87
2023-07-06T06:48:34.222Z,75.78
2023-07-06T06:49:34.291Z,73.88
2023-07-06T06:50:34.236Z,71.78
2023-07-06T06:51:34.213Z,73.23
2023-07-06T06:52:34.172Z,70.00
2023-07-06T06:53:34.164Z,70.69
2023-07-06T06:54:34.283Z,71.23
2023-07-06T06:55:34.142Z,71.34
2023-07-06T06:56:34.133Z,74.40
2023-07-06T06:57:34.148Z,73.55
2023-07-06T06:58:34.118Z,74.98
2023-07-06T06:59:34.586Z,73.51
2023-07-06T07:00:34.099Z,69.87
2023-07-06T07:01:34.132Z,72.50
2023-07-06T07:02:34.112Z,73.67
2023-07-06T07:03:34.085Z,75.94
2023-07-06T07:04:34.083Z,73.05
2023-07-06T07:05:34.034Z,74.40
2023-07-06T07:06:33.993Z,73.91
2023-07-06T07:07:34.006Z,73.36
2023-07-06T07:08:34.010Z,69.62
2023-07-06T07:09:34.004Z,69.74
2023-07-06T07:10:33.965Z,70.83
2023-07-06T07:11:33.919Z,73.90
2023-07-06T07:12:33.935Z,73.56
2023-07-06T07:13:33.930Z,69.56
2023-07-06T07:14:33.910Z,68.65
2023-07-06T07:15:33.879Z,67.00
2023-07-06T07:16:33.895Z,68.80
2023-07-06T07:17:33.916Z,67.15
2023-07-06T07:18:33.859Z,68.29
2023-07-06T07:19:33.863Z,69.03
2023-07-06T07:20:33.808Z,68.69
2023-07-06T07:21:33.857Z,66.92
2023-07-06T07:22:33.830Z,63.25
2023-07-06T07:23:33.842Z,62.73
2023-07-06T07:24:34.054Z,61.69
2023-07-06T07:25:33.865Z,59.95
2023-07-06T07:26:33.875Z,61.63
2023-07-06T07:27:33.865Z,63.87
2023-07-06T07:28:33.882Z,63.52
2023-07-06T07:29:33.905Z,62.75
2023-07-06T07:30:33.899Z,62.69
2023-07-06T07:31:33.922Z,62.65
2023-07-06T07:32:33.922Z,63.46
2023-07-06T07:33:33.901Z,60.89
2023-07-06T07:34:33.929Z,63.30
2023-07-06T07:35:33.964Z,63.28
2023-07-06T07:36:35.177Z,62.94
2023-07-06T07:37:34.005Z,65.46
2023-07-06T07:38:33.932Z,66.85
2023-07-06T07:39:33.948Z,64.72
2023-07-06T07:40:33.950Z,61.71
2023-07-06T07:41:33.951Z,59.49
2023-07-06T07:42:33.924Z,58.48
2023-07-06T07:43:33.965Z,55.75
2023-07-06T07:44:33.989Z,58.57
2023-07-06T07:45:33.995Z,57.63
2023-07-06T07:46:34.183Z,51.70
2023-07-06T07:47:33.985Z,50.46
2023-07-06T07:48:34.028Z,50.61
2023-07-06T07:49:33.978Z,51.10
2023-07-06T07:50:33.991Z,52.41
2023-07-06T07:51:34.030Z,50.38
2023-07-06T07:52:34.016Z,50.00
2023-07-06T07:53:34.026Z,53.71
2023-07-06T07:54:34.050Z,50.00
2023-07-06T07:55:34.027Z,53.14
2023-07-06T07:56:34.085Z,51.61
2023-07-06T07:57:34.066Z,50.60
2023-07-06T07:58:34.153Z,51.94
2023-07-06T07:59:34.085Z,47.54
2023-07-06T08:00:34.093Z,50.00
2023-07-06T08:01:34.129Z,50.94
2023-07-06T08:02:34.174Z,50.58
2023-07-06T08:03:34.227Z,50.84
2023-07-06T08:04:34.207Z,50.89
2023-07-06T08:05:34.153Z,52.74
2023-07-06T08:06:34.201Z,53.25
2023-07-06T08:07:34.218Z,55.99
2023-07-06T08:08:34.213Z,57.32
2023-07-06T08:09:34.226Z,56.80
2023-07-06T08:10:34.269Z,57.73
2023-07-06T08:11:34.281Z,55.71
2023-07-06T08:12:35.144Z,55.48
2023-07-06T08:13:34.387Z,60.33
2023-07-06T08:14:34.297Z,62.57
2023-07-06T08:15:34.332Z,62.77
2023-07-06T08:16:34.437Z,64.75
2023-07-06T08:17:34.374Z,64.26
2023-07-06T08:18:34.389Z,66.00
2023-07-06T08:19:50.001Z,66.29
2023-07-06T08:21:22.461Z,66.53
2023-07-06T08:21:40.311Z,66.69
2023-07-06T08:22:35.293Z,66.81
2023-07-06T08:23:34.241Z,68.32
2023-07-06T08:24:34.243Z,70.29
2023-07-06T08:25:34.208Z,73.01
2023-07-06T08:26:34.181Z,76.81
2023-07-06T08:27:34.165Z,79.64
2023-07-06T08:28:34.150Z,79.42
2023-07-06T08:29:34.131Z,79.65
2023-07-06T08:30:34.097Z,78.30
2023-07-06T08:31:34.157Z,75.14
2023-07-06T08:32:34.107Z,74.46
2023-07-06T08:33:34.029Z,69.79
2023-07-06T08:34:34.047Z,73.17
2023-07-06T08:35:34.007Z,71.92
2023-07-06T08:36:33.965Z,71.52
2023-07-06T08:37:33.934Z,70.52
2023-07-06T08:38:33.968Z,70.66
2023-07-06T08:39:33.905Z,71.43
2023-07-06T08:40:33.913Z,71.77
2023-07-06T08:41:33.884Z,72.20
2023-07-06T08:42:33.850Z,70.78
2023-07-06T08:43:33.826Z,68.56
2023-07-06T08:44:33.798Z,71.24
2023-07-06T08:45:33.740Z,72.16
2023-07-06T08:46:33.793Z,77.32
2023-07-06T08:47:33.717Z,77.38
2023-07-06T08:48:33.666Z,79.22
2023-07-06T08:49:33.715Z,79.61
2023-07-06T08:50:33.607Z,81.83
2023-07-06T08:51:33.603Z,85.38
2023-07-06T08:52:33.563Z,86.16
2023-07-06T08:53:33.549Z,86.53
2023-07-06T08:54:33.543Z,86.59
2023-07-06T08:55:33.487Z,86.15
2023-07-06T08:56:33.504Z,85.72
2023-07-06T08:57:33.454Z,85.63
2023-07-06T08:58:33.416Z,82.49
2023-07-06T08:59:33.465Z,81.60
2023-07-06T09:00:33.439Z,82.61
2023-07-06T09:01:33.420Z,81.23
2023-07-06T09:02:33.331Z,70.75
2023-07-06T09:03:33.333Z,65.04
2023-07-06T09:04:33.258Z,70.09
2023-07-06T09:05:33.237Z,72.12
2023-07-06T09:06:33.225Z,73.57
2023-07-06T09:07:33.181Z,72.27
2023-07-06T09:08:33.217Z,71.58
2023-07-06T09:09:33.142Z,74.17
2023-07-06T09:10:33.114Z,76.64
2023-07-06T09:11:33.122Z,78.24
2023-07-06T09:12:33.019Z,76.75
2023-07-06T09:13:33.035Z,76.95
2023-07-06T09:14:33.003Z,77.20
2023-07-06T09:16:33.381Z,77.98
2023-07-06T09:17:32.971Z,82.09
2023-07-06T09:18:32.899Z,84.42
2023-07-06T09:19:32.871Z,83.99
2023-07-06T09:20:32.850Z,86.00
2023-07-06T09:21:32.807Z,83.82
2023-07-06T09:22:32.779Z,85.44
2023-07-06T09:23:32.783Z,86.48
2023-07-06T09:24:32.728Z,87.86
2023-07-06T09:25:32.757Z,91.46
2023-07-06T09:26:34.097Z,93.67
2023-07-06T09:27:32.726Z,89.21
2023-07-06T09:28:32.644Z,91.43
2023-07-06T09:29:32.643Z,90.77
2023-07-06T09:30:32.751Z,89.11
2023-07-06T09:31:32.710Z,90.94
2023-07-06T09:32:32.790Z,92.01
2023-07-06T09:33:33.175Z,93.48
2023-07-06T09:34:32.856Z,92.74
2023-07-06T09:35:32.872Z,92.99
2023-07-06T09:36:32.922Z,94.23
2023-07-06T09:37:32.944Z,95.89
2023-07-06T09:38:32.977Z,96.07
2023-07-06T09:39:33.048Z,92.97
2023-07-06T09:40:34.128Z,90.93
2023-07-06T09:41:33.102Z,90.45
2023-07-06T09:42:33.187Z,92.20
2023-07-06T09:43:33.270Z,92.81
2023-07-06T09:44:33.239Z,93.38
2023-07-06T09:45:33.317Z,93.89
2023-07-06T09:46:33.476Z,95.33
2023-07-06T09:47:33.435Z,96.95
2023-07-06T09:48:33.456Z,100.92
2023-07-06T09:49:33.443Z,97.64
2023-07-06T09:50:33.464Z,94.51
2023-07-06T09:51:33.551Z,92.78
2023-07-06T09:52:33.548Z,95.69
2023-07-06T09:53:33.566Z,94.97
2023-07-06T09:54:33.589Z,99.35
2023-07-06T09:55:33.623Z,99.72
2023-07-06T09:56:33.669Z,102.12
2023-07-06T09:57:33.683Z,97.50
2023-07-06T09:58:33.736Z,94.64
2023-07-06T09:59:33.760Z,97.71
2023-07-06T10:00:33.803Z,96.97
2023-07-06T10:01:33.965Z,101.03
2023-07-06T10:02:33.883Z,101.51
2023-07-06T10:03:33.880Z,98.92
2023-07-06T10:04:33.985Z,101.14
2023-07-06T10:05:34.309Z,101.23
2023-07-06T10:06:34.010Z,106.16
2023-07-06T10:07:34.068Z,106.84
2023-07-06T10:08:34.112Z,105.91
2023-07-06T10:09:34.167Z,104.52
2023-07-06T10:10:34.202Z,106.63
2023-07-06T10:11:34.202Z,106.69
2023-07-06T10:12:34.257Z,108.59
2023-07-06T10:13:34.361Z,109.71
2023-07-06T10:14:34.351Z,107.56
2023-07-06T10:15:34.358Z,109.33
2023-07-06T10:16:34.436Z,108.46
2023-07-06T10:17:34.459Z,108.15
2023-07-06T10:18:34.496Z,107.05
2023-07-06T10:19:34.561Z,105.88
2023-07-06T10:20:34.601Z,105.32
2023-07-06T10:21:34.621Z,107.25
2023-07-06T10:22:34.612Z,107.60
2023-07-06T10:23:34.657Z,104.87
2023-07-06T10:24:34.682Z,106.42
2023-07-06T10:25:34.823Z,103.70
2023-07-06T10:26:34.755Z,102.67
2023-07-06T10:27:34.807Z,101.66
2023-07-06T10:28:34.897Z,106.55
2023-07-06T10:29:34.858Z,105.93
2023-07-06T10:30:34.926Z,104.02
2023-07-06T10:31:34.984Z,103.65
2023-07-06T10:32:34.996Z,105.34
2023-07-06T10:33:35.017Z,104.77
2023-07-06T10:34:35.060Z,102.80
2023-07-06T10:35:35.094Z,103.74
2023-07-06T10:36:35.115Z,100.94
2023-07-06T10:37:35.137Z,98.95
2023-07-06T10:38:35.178Z,100.73
2023-07-06T10:39:35.195Z,101.42
2023-07-06T10:40:35.226Z,101.47
2023-07-06T10:41:35.297Z,99.90
2023-07-06T10:42:35.302Z,98.90
2023-07-06T10:43:35.331Z,100.54
2023-07-06T10:44:35.343Z,98.47
2023-07-06T10:45:35.335Z,100.04
2023-07-06T10:46:35.565Z,99.79
2023-07-06T10:47:35.421Z,100.21
2023-07-06T10:48:35.722Z,100.02
2023-07-06T10:49:35.441Z,97.51
2023-07-06T10:50:35.450Z,99.71
2023-07-06T10:51:35.432Z,100.49
2023-07-06T10:52:35.465Z,98.79
2023-07-06T10:53:35.485Z,99.24
2023-07-06T10:54:35.517Z,98.93
2023-07-06T10:55:35.518Z,99.73
2023-07-06T10:56:35.517Z,100.22
2023-07-06T10:57:35.503Z,99.30
2023-07-06T10:58:35.548Z,100.03
2023-07-06T10:59:35.544Z,101.60
2023-07-06T11:00:35.574Z,98.76
2023-07-06T11:01:35.568Z,99.70
2023-07-06T11:02:35.662Z,100.73
2023-07-06T11:03:35.576Z,102.13
2023-07-06T11:04:35.580Z,100.73
2023-07-06T11:05:37.538Z,102.13
2023-07-06T11:06:35.736Z,100.13
2023-07-06T11:07:36.592Z,100.32
2023-07-06T11:08:35.528Z,100.71
2023-07-06T11:09:35.510Z,101.01
2023-07-06T11:10:35.485Z,101.52
2023-07-06T11:11:35.469Z,102.23
2023-07-06T11:12:35.387Z,102.23
2023-07-06T11:13:35.409Z,102.86
2023-07-06T11:14:35.353Z,101.98
2023-07-06T11:15:35.344Z,103.79
2023-07-06T11:16:35.307Z,103.19
2023-07-06T11:17:35.286Z,102.46
2023-07-06T11:18:35.219Z,102.34
2023-07-06T11:19:35.238Z,103.02
2023-07-06T11:20:35.235Z,102.70
2023-07-06T11:21:35.238Z,102.76
2023-07-06T11:22:35.303Z,102.24
2023-07-06T11:23:35.289Z,102.45
2023-07-06T11:24:35.261Z,103.12
2023-07-06T11:25:35.286Z,101.67
2023-07-06T11:26:35.277Z,102.36
2023-07-06T11:27:35.295Z,102.75
2023-07-06T11:28:35.311Z,104.67
2023-07-06T11:29:35.320Z,105.22
2023-07-06T11:30:35.335Z,103.90
2023-07-06T11:31:35.394Z,103.89
2023-07-06T11:32:35.393Z,104.81
2023-07-06T11:33:35.366Z,104.92
2023-07-06T11:34:38.122Z,103.40
2023-07-06T11:35:35.385Z,106.98
2023-07-06T11:36:35.366Z,105.23
2023-07-06T11:37:45.368Z,105.01
2023-07-06T11:38:36.328Z,105.22
2023-07-06T11:39:35.302Z,105.22
2023-07-06T11:40:35.323Z,105.38
2023-07-06T11:41:35.263Z,104.55
2023-07-06T11:42:35.232Z,104.52
2023-07-06T11:43:35.220Z,105.08
2023-07-06T11:44:35.202Z,102.53
2023-07-06T11:45:35.181Z,102.71
2023-07-06T11:46:35.217Z,101.62
2023-07-06T11:47:35.240Z,103.07
2023-07-06T11:48:35.131Z,100.85
2023-07-06T11:49:35.098Z,101.63
2023-07-06T11:50:35.084Z,101.94
2023-07-06T11:51:35.045Z,100.68
2023-07-06T11:52:35.048Z,102.44
2023-07-06T11:53:35.052Z,102.76
2023-07-06T11:54:35.005Z,101.36
2023-07-06T11:55:34.979Z,101.43
2023-07-06T11:56:34.967Z,101.16
2023-07-06T11:57:34.964Z,101.49
2023-07-06T11:58:34.980Z,100.57
2023-07-06T11:59:34.906Z,100.67
2023-07-06T12:00:34.892Z,100.28
2023-07-06T12:01:34.909Z,99.74
2023-07-06T12:02:34.900Z,99.22
2023-07-06T12:03:34.915Z,100.00
2023-07-06T12:04:34.826Z,99.01
2023-07-06T12:05:34.896Z,98.24
2023-07-06T12:06:34.776Z,100.08
2023-07-06T12:07:34.751Z,98.80
2023-07-06T12:08:34.782Z,98.80
2023-07-06T12:09:34.728Z,98.99
2023-07-06T12:10:34.757Z,97.72
2023-07-06T12:11:34.746Z,98.68
2023-07-06T12:12:34.755Z,99.28
2023-07-06T12:13:34.767Z,97.43
2023-07-06T12:14:34.745Z,97.36
2023-07-06T12:15:34.810Z,97.67
2023-07-06T12:16:34.891Z,96.80
2023-07-06T12:17:34.726Z,95.45
2023-07-06T12:18:34.725Z,84.01
2023-07-06T12:19:34.696Z,64.60
2023-07-06T12:20:34.700Z,72.73
2023-07-06T12:21:34.747Z,81.69
2023-07-06T12:22:34.680Z,83.69
2023-07-06T12:23:34.700Z,82.82
2023-07-06T12:24:34.686Z,79.23
2023-07-06T12:25:34.705Z,77.82
2023-07-06T12:26:34.664Z,75.08
2023-07-06T12:27:34.695Z,74.44
2023-07-06T12:28:34.729Z,71.33
2023-07-06T12:29:34.671Z,76.86
2023-07-06T12:30:34.689Z,77.79
2023-07-06T12:31:34.757Z,79.63
2023-07-06T12:32:36.680Z,77.72
2023-07-06T12:33:34.656Z,76.14
2023-07-06T12:34:34.685Z,75.97
2023-07-06T12:35:34.659Z,76.18
2023-07-06T12:36:34.663Z,78.01
2023-07-06T12:37:34.607Z,76.95
2023-07-06T12:38:34.639Z,75.96
2023-07-06T12:39:34.593Z,78.18
2023-07-06T12:40:34.599Z,77.23
2023-07-06T12:41:34.615Z,77.66
2023-07-06T12:42:34.576Z,77.07
2023-07-06T12:43:34.582Z,77.84
2023-07-06T12:44:34.571Z,77.51
2023-07-06T12:45:34.637Z,80.16
2023-07-06T12:46:34.634Z,79.06
2023-07-06T12:47:34.563Z,78.78
2023-07-06T12:48:34.547Z,78.75
2023-07-06T12:49:34.532Z,79.86
2023-07-06T12:50:34.528Z,79.08
2023-07-06T12:51:34.511Z,78.96